PY-0018 weather

Estancia Lomas Airport
Rosario, San Pedro Department, Paraguay

Public forecast

Using degrees Celsius for public forecast. Weather courtesy of forecast.io.

METAR (pilot weather report)

Report is more than 6 hours old.

Closest report is San Pedro Airport, 32.2 nm (59.7 km) N. Retrieved 2018/07/16 18:00 UTC (2 months ago):

SGSP 161800Z 36008KT 9999 FEW033 32/16 Q1010

TAF (pilot weather forecast)

Forecast is more than 12 hours old.

Closest forecast is Silvio Pettirossi International Airport, 42.5 nm (78.7 km) SSW. Retrieved 2018/09/17 00:39 UTC (2 days ago):

TAF SGAS 162300Z 1700/1800 15010KT 5000 RABR BKN005 TX26/1719Z TN16/1709Z BECMG 1703/1706 3000 RABR BKN008 BECMG 1709/1712 1500 DZBR BKN005 OVC010 BECMG 1715/1718 18005KT 9999 BKN027 BECMG 1719/1722 9999 SCT033